Terminal Aerodrome Forecast
Issued by NWS

Home | Current Version | Previous Version | Text Only | Print | Product List | Glossary On
Versions: 1 2 3 4 5 6 7 8 9 10 11 12 13 14 15 16 17 18 19 20 21 22 23
000
FTUS43 KMQT 300232 CCB
TAFSAW
TAF COR
KSAW 300232Z 3002/3024 02007KT P6SM FEW005
      TEMPO 3002/3006 BKN005
     FM300600 02007KT 5SM BR BKN005
     FM301100 02004KT 1 1/2SM BR BKN005
     FM301300 03006KT 3SM BR SCT010
     FM301400 03007KT P6SM SCT025=

USA.gov is the U.S. government's official web portal to all federal, state and local government web resources and services.